sensor_id;sensor_type;location;lat;lon;timestamp;P1;durP1;ratioP1;P2;durP2;ratioP2
77168;SDS011;66281;45.114;20.730;2024-03-17T00:03:24;103.47;;;52.37;;
77168;SDS011;66281;45.114;20.730;2024-03-17T00:13:25;72.32;;;38.75;;
77168;SDS011;66281;45.114;20.730;2024-03-17T00:23:26;62.93;;;35.17;;
77168;SDS011;66281;45.114;20.730;2024-03-17T00:33:29;52.77;;;31.27;;
77168;SDS011;66281;45.114;20.730;2024-03-17T00:43:30;41.97;;;26.70;;
77168;SDS011;66281;45.114;20.730;2024-03-17T00:53:31;39.57;;;23.57;;
77168;SDS011;66281;45.114;20.730;2024-03-17T01:03:32;35.87;;;20.77;;
77168;SDS011;66281;45.114;20.730;2024-03-17T01:13:34;35.25;;;20.55;;
77168;SDS011;66281;45.114;20.730;2024-03-17T01:23:42;32.27;;;20.87;;
77168;SDS011;66281;45.114;20.730;2024-03-17T01:33:43;28.83;;;18.27;;
77168;SDS011;66281;45.114;20.730;2024-03-17T01:43:46;28.87;;;16.80;;
77168;SDS011;66281;45.114;20.730;2024-03-17T01:53:47;25.10;;;16.05;;
77168;SDS011;66281;45.114;20.730;2024-03-17T02:03:49;26.47;;;16.30;;
77168;SDS011;66281;45.114;20.730;2024-03-17T02:13:50;28.23;;;17.00;;
77168;SDS011;66281;45.114;20.730;2024-03-17T02:23:52;28.48;;;17.13;;
77168;SDS011;66281;45.114;20.730;2024-03-17T02:33:54;27.97;;;16.40;;
77168;SDS011;66281;45.114;20.730;2024-03-17T02:43:55;30.17;;;17.50;;
77168;SDS011;66281;45.114;20.730;2024-03-17T02:53:57;29.40;;;18.17;;
77168;SDS011;66281;45.114;20.730;2024-03-17T03:04:00;27.43;;;17.20;;
77168;SDS011;66281;45.114;20.730;2024-03-17T03:14:01;27.90;;;17.97;;
77168;SDS011;66281;45.114;20.730;2024-03-17T03:24:03;28.13;;;17.30;;
77168;SDS011;66281;45.114;20.730;2024-03-17T03:34:04;30.88;;;18.92;;
77168;SDS011;66281;45.114;20.730;2024-03-17T03:44:08;28.40;;;17.67;;
77168;SDS011;66281;45.114;20.730;2024-03-17T03:54:11;31.53;;;19.90;;
77168;SDS011;66281;45.114;20.730;2024-03-17T04:04:12;32.95;;;19.70;;
77168;SDS011;66281;45.114;20.730;2024-03-17T04:14:14;33.90;;;19.40;;
77168;SDS011;66281;45.114;20.730;2024-03-17T04:24:15;41.93;;;22.47;;
77168;SDS011;66281;45.114;20.730;2024-03-17T04:34:16;37.97;;;24.20;;
77168;SDS011;66281;45.114;20.730;2024-03-17T04:44:17;38.07;;;23.63;;
77168;SDS011;66281;45.114;20.730;2024-03-17T04:54:19;40.40;;;23.40;;
77168;SDS011;66281;45.114;20.730;2024-03-17T05:04:20;41.30;;;24.33;;
77168;SDS011;66281;45.114;20.730;2024-03-17T05:14:21;38.28;;;23.60;;
77168;SDS011;66281;45.114;20.730;2024-03-17T05:24:23;40.63;;;24.40;;
77168;SDS011;66281;45.114;20.730;2024-03-17T05:34:24;39.10;;;23.33;;
77168;SDS011;66281;45.114;20.730;2024-03-17T05:44:26;41.80;;;25.45;;
77168;SDS011;66281;45.114;20.730;2024-03-17T05:54:30;31.83;;;21.93;;
77168;SDS011;66281;45.114;20.730;2024-03-17T06:04:31;34.27;;;21.57;;
77168;SDS011;66281;45.114;20.730;2024-03-17T06:14:33;35.42;;;20.63;;
77168;SDS011;66281;45.114;20.730;2024-03-17T06:24:35;39.13;;;21.70;;
77168;SDS011;66281;45.114;20.730;2024-03-17T06:34:36;45.27;;;23.67;;
77168;SDS011;66281;45.114;20.730;2024-03-17T06:44:37;26.87;;;17.07;;
77168;SDS011;66281;45.114;20.730;2024-03-17T06:54:40;21.77;;;13.80;;
77168;SDS011;66281;45.114;20.730;2024-03-17T07:04:41;19.20;;;11.67;;
77168;SDS011;66281;45.114;20.730;2024-03-17T07:14:43;12.57;;;8.97;;
77168;SDS011;66281;45.114;20.730;2024-03-17T07:24:44;13.10;;;9.45;;
77168;SDS011;66281;45.114;20.730;2024-03-17T07:34:45;19.60;;;8.67;;
77168;SDS011;66281;45.114;20.730;2024-03-17T07:44:47;12.60;;;7.10;;
77168;SDS011;66281;45.114;20.730;2024-03-17T07:54:48;6.10;;;4.93;;
77168;SDS011;66281;45.114;20.730;2024-03-17T08:04:49;9.20;;;5.00;;
77168;SDS011;66281;45.114;20.730;2024-03-17T08:14:50;15.53;;;10.50;;
77168;SDS011;66281;45.114;20.730;2024-03-17T08:24:52;15.93;;;7.50;;
77168;SDS011;66281;45.114;20.730;2024-03-17T08:34:54;14.50;;;7.70;;
77168;SDS011;66281;45.114;20.730;2024-03-17T08:44:55;8.70;;;5.80;;
77168;SDS011;66281;45.114;20.730;2024-03-17T08:54:57;6.70;;;4.57;;
77168;SDS011;66281;45.114;20.730;2024-03-17T09:04:58;13.43;;;7.00;;
77168;SDS011;66281;45.114;20.730;2024-03-17T09:15:00;7.10;;;4.33;;
77168;SDS011;66281;45.114;20.730;2024-03-17T09:25:01;7.63;;;4.77;;
77168;SDS011;66281;45.114;20.730;2024-03-17T09:35:03;6.20;;;4.20;;
77168;SDS011;66281;45.114;20.730;2024-03-17T09:45:05;5.47;;;3.83;;
77168;SDS011;66281;45.114;20.730;2024-03-17T09:55:17;5.07;;;3.13;;
77168;SDS011;66281;45.114;20.730;2024-03-17T10:05:22;2.80;;;1.90;;
77168;SDS011;66281;45.114;20.730;2024-03-17T10:15:24;3.88;;;2.20;;
77168;SDS011;66281;45.114;20.730;2024-03-17T10:25:30;8.80;;;3.57;;
77168;SDS011;66281;45.114;20.730;2024-03-17T10:35:36;8.13;;;3.70;;
77168;SDS011;66281;45.114;20.730;2024-03-17T10:45:39;7.65;;;3.75;;
77168;SDS011;66281;45.114;20.730;2024-03-17T10:55:45;4.13;;;3.17;;
77168;SDS011;66281;45.114;20.730;2024-03-17T11:05:48;5.97;;;3.43;;
77168;SDS011;66281;45.114;20.730;2024-03-17T11:15:51;6.25;;;3.45;;
77168;SDS011;66281;45.114;20.730;2024-03-17T11:25:54;3.87;;;2.10;;
77168;SDS011;66281;45.114;20.730;2024-03-17T11:46:21;5.33;;;3.60;;
77168;SDS011;66281;45.114;20.730;2024-03-17T11:56:23;6.35;;;2.70;;
77168;SDS011;66281;45.114;20.730;2024-03-17T12:06:24;3.33;;;2.20;;
77168;SDS011;66281;45.114;20.730;2024-03-17T12:16:26;4.10;;;2.37;;
77168;SDS011;66281;45.114;20.730;2024-03-17T12:26:27;2.78;;;2.45;;
77168;SDS011;66281;45.114;20.730;2024-03-17T12:36:28;10.07;;;3.83;;
77168;SDS011;66281;45.114;20.730;2024-03-17T12:46:29;16.30;;;7.13;;
77168;SDS011;66281;45.114;20.730;2024-03-17T12:56:31;7.00;;;2.80;;
77168;SDS011;66281;45.114;20.730;2024-03-17T13:06:51;6.73;;;3.30;;
77168;SDS011;66281;45.114;20.730;2024-03-17T13:16:53;6.57;;;3.53;;
77168;SDS011;66281;45.114;20.730;2024-03-17T13:26:54;6.83;;;2.70;;
77168;SDS011;66281;45.114;20.730;2024-03-17T13:36:59;4.30;;;2.45;;
77168;SDS011;66281;45.114;20.730;2024-03-17T13:47:01;5.80;;;3.00;;
77168;SDS011;66281;45.114;20.730;2024-03-17T13:57:05;4.30;;;2.63;;
77168;SDS011;66281;45.114;20.730;2024-03-17T14:07:06;4.43;;;2.78;;
77168;SDS011;66281;45.114;20.730;2024-03-17T14:17:08;6.83;;;2.10;;
77168;SDS011;66281;45.114;20.730;2024-03-17T14:27:09;6.67;;;2.40;;
77168;SDS011;66281;45.114;20.730;2024-03-17T14:37:13;4.20;;;2.28;;
77168;SDS011;66281;45.114;20.730;2024-03-17T14:47:15;3.23;;;2.03;;
77168;SDS011;66281;45.114;20.730;2024-03-17T14:57:16;5.33;;;2.40;;
77168;SDS011;66281;45.114;20.730;2024-03-17T15:07:21;6.80;;;3.77;;
77168;SDS011;66281;45.114;20.730;2024-03-17T15:17:24;4.97;;;2.65;;
77168;SDS011;66281;45.114;20.730;2024-03-17T15:27:26;5.93;;;3.73;;
77168;SDS011;66281;45.114;20.730;2024-03-17T15:37:27;3.20;;;2.40;;
77168;SDS011;66281;45.114;20.730;2024-03-17T15:47:28;7.15;;;3.42;;
77168;SDS011;66281;45.114;20.730;2024-03-17T15:57:30;16.33;;;8.70;;
77168;SDS011;66281;45.114;20.730;2024-03-17T16:07:31;7.80;;;4.53;;
77168;SDS011;66281;45.114;20.730;2024-03-17T16:17:32;38.13;;;16.67;;
77168;SDS011;66281;45.114;20.730;2024-03-17T16:27:37;15.23;;;6.63;;
77168;SDS011;66281;45.114;20.730;2024-03-17T16:37:39;11.07;;;8.07;;
77168;SDS011;66281;45.114;20.730;2024-03-17T16:47:40;12.57;;;7.87;;
77168;SDS011;66281;45.114;20.730;2024-03-17T16:57:42;25.05;;;11.30;;
77168;SDS011;66281;45.114;20.730;2024-03-17T17:07:43;26.83;;;12.73;;
77168;SDS011;66281;45.114;20.730;2024-03-17T17:17:47;25.13;;;12.37;;
77168;SDS011;66281;45.114;20.730;2024-03-17T17:27:52;31.73;;;15.68;;
77168;SDS011;66281;45.114;20.730;2024-03-17T17:37:55;29.60;;;13.23;;
77168;SDS011;66281;45.114;20.730;2024-03-17T17:47:56;38.90;;;17.13;;
77168;SDS011;66281;45.114;20.730;2024-03-17T17:57:57;33.00;;;18.23;;
77168;SDS011;66281;45.114;20.730;2024-03-17T18:08:00;49.37;;;22.63;;
77168;SDS011;66281;45.114;20.730;2024-03-17T18:18:04;59.93;;;26.90;;
77168;SDS011;66281;45.114;20.730;2024-03-17T18:28:07;43.77;;;20.50;;
77168;SDS011;66281;45.114;20.730;2024-03-17T18:38:08;47.58;;;21.42;;
77168;SDS011;66281;45.114;20.730;2024-03-17T18:48:10;48.07;;;25.37;;
77168;SDS011;66281;45.114;20.730;2024-03-17T18:58:11;34.00;;;16.27;;
77168;SDS011;66281;45.114;20.730;2024-03-17T19:08:15;62.38;;;25.92;;
77168;SDS011;66281;45.114;20.730;2024-03-17T19:18:17;88.30;;;33.63;;
77168;SDS011;66281;45.114;20.730;2024-03-17T19:28:18;77.37;;;28.20;;
77168;SDS011;66281;45.114;20.730;2024-03-17T19:38:20;105.18;;;38.22;;
77168;SDS011;66281;45.114;20.730;2024-03-17T19:48:23;28.67;;;13.87;;
77168;SDS011;66281;45.114;20.730;2024-03-17T19:58:25;75.23;;;33.30;;
77168;SDS011;66281;45.114;20.730;2024-03-17T20:08:26;41.23;;;19.03;;
77168;SDS011;66281;45.114;20.730;2024-03-17T20:18:28;33.83;;;14.65;;
77168;SDS011;66281;45.114;20.730;2024-03-17T20:28:31;36.30;;;17.73;;
77168;SDS011;66281;45.114;20.730;2024-03-17T20:38:32;16.07;;;8.50;;
77168;SDS011;66281;45.114;20.730;2024-03-17T20:48:34;18.10;;;9.65;;
77168;SDS011;66281;45.114;20.730;2024-03-17T20:58:37;24.43;;;10.40;;
77168;SDS011;66281;45.114;20.730;2024-03-17T21:08:38;17.63;;;8.70;;
77168;SDS011;66281;45.114;20.730;2024-03-17T21:18:40;16.08;;;8.88;;
77168;SDS011;66281;45.114;20.730;2024-03-17T21:28:43;25.33;;;12.63;;
77168;SDS011;66281;45.114;20.730;2024-03-17T21:38:44;52.10;;;22.13;;
77168;SDS011;66281;45.114;20.730;2024-03-17T21:48:47;52.40;;;24.60;;
77168;SDS011;66281;45.114;20.730;2024-03-17T21:58:49;58.22;;;27.20;;
77168;SDS011;66281;45.114;20.730;2024-03-17T22:08:51;61.93;;;27.37;;
77168;SDS011;66281;45.114;20.730;2024-03-17T22:18:53;55.70;;;24.67;;
77168;SDS011;66281;45.114;20.730;2024-03-17T22:28:56;63.97;;;28.48;;
77168;SDS011;66281;45.114;20.730;2024-03-17T22:38:58;76.53;;;33.47;;
77168;SDS011;66281;45.114;20.730;2024-03-17T22:48:59;65.37;;;30.43;;
77168;SDS011;66281;45.114;20.730;2024-03-17T22:59:00;66.30;;;31.48;;
77168;SDS011;66281;45.114;20.730;2024-03-17T23:09:02;56.17;;;26.03;;
77168;SDS011;66281;45.114;20.730;2024-03-17T23:19:06;47.87;;;25.07;;
77168;SDS011;66281;45.114;20.730;2024-03-17T23:29:07;45.77;;;20.37;;
77168;SDS011;66281;45.114;20.730;2024-03-17T23:39:09;25.35;;;14.07;;
77168;SDS011;66281;45.114;20.730;2024-03-17T23:49:11;35.40;;;14.20;;
77168;SDS011;66281;45.114;20.730;2024-03-17T23:59:12;32.20;;;14.23;;
